Terminal Aerodrome Forecast
Issued by NWS Wilmington, NC

Home | Current Version | Previous Version | Text Only | Print | Product List | Glossary On
Versions: 1 2 3 4 5 6 7 8 9 10 11 12 13 14 15
719
FTUS42 KILM 212321
TAFFLO
TAF
KFLO 212321Z 2200/2224 16004KT P6SM SCT030 SCT250
     FM220600 00000KT 4SM BR SKC
     FM220900 00000KT 1/4SM FG FEW250
     FM221400 21003KT P6SM FEW250
     FM221800 20006KT P6SM VCTS SCT040CB SCT250=

USA.gov is the U.S. government's official web portal to all federal, state and local government web resources and services.